createdAt,value
2023-05-14T00:02:41.138Z,95565.47
2023-05-14T00:05:35.024Z,95559.56
2023-05-14T00:08:29.009Z,95557.84
2023-05-14T00:11:23.087Z,95557.84
2023-05-14T00:14:10.071Z,95550.22
2023-05-14T00:16:50.034Z,95543.41
2023-05-14T00:19:44.049Z,95552.75
2023-05-14T00:22:31.066Z,95545.09
2023-05-14T00:25:04.134Z,95549.34
2023-05-14T00:27:51.024Z,95544.25
2023-05-14T00:30:31.014Z,95541.72
2023-05-14T00:33:25.031Z,95540.88
2023-05-14T00:36:19.043Z,95543.44
2023-05-14T00:39:06.054Z,95550.22
2023-05-14T00:41:46.032Z,95546.81
2023-05-14T00:44:33.069Z,95551.09
2023-05-14T00:47:10.174Z,95554.47
2023-05-14T00:49:57.029Z,95557.03
2023-05-14T00:52:31.131Z,95551.94
2023-05-14T00:55:23.059Z,95559.59
2023-05-14T00:58:01.193Z,95544.28
2023-05-14T01:00:49.028Z,95557.84
2023-05-14T01:03:22.221Z,95555.31
2023-05-14T01:06:33.077Z,95549.34
2023-05-14T01:09:21.094Z,95558.72
2023-05-14T01:12:48.050Z,95558.69
2023-05-14T01:15:40.033Z,95557.00
2023-05-14T01:18:20.145Z,95552.78
2023-05-14T01:21:08.051Z,95557.88
2023-05-14T01:23:41.210Z,95558.69
2023-05-14T01:26:28.086Z,95559.53
2023-05-14T01:29:12.036Z,95564.63
2023-05-14T01:32:02.076Z,95562.06
2023-05-14T01:34:37.199Z,95564.59
2023-05-14T01:37:24.092Z,95567.97
2023-05-14T01:39:59.212Z,95565.38
2023-05-14T01:42:46.085Z,95564.50
2023-05-14T01:45:26.058Z,95555.16
2023-05-14T01:48:20.062Z,95556.81
2023-05-14T01:51:07.081Z,95552.59
2023-05-14T01:53:40.277Z,95555.09
2023-05-14T01:56:30.068Z,95559.31
2023-05-14T01:59:10.078Z,95550.00
2023-05-14T02:02:04.068Z,95538.91
2023-05-14T02:04:51.082Z,95540.59
2023-05-14T02:07:24.160Z,95530.44
2023-05-14T02:10:12.110Z,95540.56
2023-05-14T02:12:45.258Z,95538.00
2023-05-14T02:15:32.104Z,95537.16
2023-05-14T02:18:05.181Z,95533.69
2023-05-14T02:20:53.069Z,95531.97
2023-05-14T02:23:41.198Z,95535.34
2023-05-14T02:26:36.106Z,95531.94
2023-05-14T02:29:23.081Z,95536.16
2023-05-14T02:31:56.259Z,95532.75
2023-05-14T02:34:50.089Z,95531.03
2023-05-14T02:37:44.076Z,95525.91
2023-05-14T02:40:32.289Z,95530.94
2023-05-14T02:43:13.085Z,95530.94
2023-05-14T02:46:07.087Z,95524.16
2023-05-14T02:48:54.105Z,95521.53
2023-05-14T02:51:27.385Z,95520.69
2023-05-14T02:54:14.091Z,95523.22
2023-05-14T02:56:54.105Z,95524.06
2023-05-14T02:59:48.079Z,95524.88
2023-05-14T03:02:35.210Z,95524.81
2023-05-14T03:05:09.529Z,95532.47
2023-05-14T03:07:58.115Z,95529.84
2023-05-14T03:10:39.128Z,95528.13
2023-05-14T03:13:33.094Z,95530.66
2023-05-14T03:16:27.171Z,95530.63
2023-05-14T03:19:21.086Z,95537.38
2023-05-14T03:22:15.120Z,95543.28
2023-05-14T03:25:02.097Z,95547.56
2023-05-14T03:27:35.264Z,95542.47
2023-05-14T03:30:22.440Z,95540.72
2023-05-14T03:32:56.267Z,95544.94
2023-05-14T03:35:43.101Z,95538.13
2023-05-14T03:38:23.110Z,95546.59
2023-05-14T03:41:17.121Z,95545.72
2023-05-14T03:44:04.106Z,95532.19
2023-05-14T03:46:37.212Z,95541.50
2023-05-14T03:49:24.099Z,95533.03
2023-05-14T03:51:59.361Z,95538.09
2023-05-14T03:54:48.110Z,95524.59
2023-05-14T03:57:28.108Z,95528.81
2023-05-14T04:00:22.338Z,95522.94
2023-05-14T04:03:09.195Z,95526.34
2023-05-14T04:05:42.259Z,95521.25
2023-05-14T04:08:29.114Z,95525.50
2023-05-14T04:11:09.106Z,95526.38
2023-05-14T04:14:03.136Z,95520.41
2023-05-14T04:16:50.151Z,95520.41
2023-05-14T04:19:23.246Z,95517.84
2023-05-14T04:22:10.106Z,95517.91
2023-05-14T04:24:43.207Z,95516.31
2023-05-14T04:27:30.136Z,95513.78
2023-05-14T04:30:10.120Z,95517.25
2023-05-14T04:32:57.180Z,95509.69
2023-05-14T04:35:31.293Z,95514.00
2023-05-14T04:38:18.136Z,95510.78
2023-05-14T04:40:58.115Z,95507.53
2023-05-14T04:43:53.137Z,95511.84
2023-05-14T04:46:40.126Z,95494.97
2023-05-14T04:49:13.313Z,95495.00
2023-05-14T04:52:00.144Z,95494.16
2023-05-14T04:54:40.232Z,95498.44
2023-05-14T04:57:27.128Z,95495.84
2023-05-14T05:00:07.142Z,95494.13
2023-05-14T05:03:01.227Z,95494.03
2023-05-14T05:05:48.141Z,95491.38
2023-05-14T05:08:21.294Z,95490.38
2023-05-14T05:11:08.156Z,95493.66
2023-05-14T05:13:48.137Z,95498.59
2023-05-14T05:16:35.244Z,95500.94
2023-05-14T05:19:15.345Z,95494.84
2023-05-14T05:22:05.152Z,95497.19
2023-05-14T05:24:45.208Z,95494.41
2023-05-14T05:27:32.154Z,95499.47
2023-05-14T05:30:06.534Z,95500.09
2023-05-14T05:32:53.240Z,95504.09
2023-05-14T05:35:26.264Z,95506.34
2023-05-14T05:38:14.204Z,95502.03
2023-05-14T05:40:47.971Z,95504.66
2023-05-14T05:43:35.193Z,95501.16
2023-05-14T05:46:08.331Z,95497.69
2023-05-14T05:48:55.148Z,95502.03
2023-05-14T05:51:28.282Z,95496.03
2023-05-14T05:54:15.163Z,95494.34
2023-05-14T05:56:48.369Z,95486.59
2023-05-14T05:59:35.171Z,95480.63
2023-05-14T06:02:08.328Z,95490.88
2023-05-14T06:04:55.188Z,95484.88
2023-05-14T06:07:28.398Z,95483.19
2023-05-14T06:10:15.181Z,95482.25
2023-05-14T06:12:48.303Z,95488.19
2023-05-14T06:15:35.162Z,95478.84
2023-05-14T06:18:08.318Z,95480.50
2023-05-14T06:20:55.169Z,95479.53
2023-05-14T06:23:28.275Z,95474.34
2023-05-14T06:26:15.200Z,95478.56
2023-05-14T06:28:55.221Z,95478.41
2023-05-14T06:31:42.331Z,95481.66
2023-05-14T06:34:22.203Z,95474.66
2023-05-14T06:37:16.184Z,95470.94
2023-05-14T06:40:03.196Z,95473.19
2023-05-14T06:42:36.377Z,95464.25
2023-05-14T06:45:23.181Z,95465.56
2023-05-14T06:48:03.239Z,95471.09
2023-05-14T06:50:57.301Z,95475.84
2023-05-14T06:53:44.188Z,95482.34
2023-05-14T06:56:17.310Z,95476.06
2023-05-14T06:58:57.188Z,95468.84
2023-05-14T07:01:37.436Z,95462.22
2023-05-14T07:04:17.236Z,95462.38
2023-05-14T07:06:57.320Z,95454.81
2023-05-14T07:09:37.222Z,95448.81
2023-05-14T07:12:17.305Z,95443.97
2023-05-14T07:14:58.222Z,95443.28
2023-05-14T07:17:38.295Z,95437.88
2023-05-14T07:20:12.300Z,95429.00
2023-05-14T07:22:59.211Z,95418.28
2023-05-14T07:25:32.755Z,95422.31
2023-05-14T07:28:19.218Z,95415.78
2023-05-14T07:30:52.431Z,95414.69
2023-05-14T07:33:39.239Z,95412.94
2023-05-14T07:36:20.221Z,95415.34
2023-05-14T07:39:07.217Z,95414.84
2023-05-14T07:41:40.348Z,95419.25
2023-05-14T07:44:28.221Z,95426.41
2023-05-14T07:47:01.363Z,95420.72
2023-05-14T07:49:48.217Z,95417.72
2023-05-14T07:52:21.313Z,95419.03
2023-05-14T07:55:10.242Z,95411.44
2023-05-14T07:57:43.311Z,95412.47
2023-05-14T08:00:30.233Z,95414.66
2023-05-14T08:03:03.826Z,95408.25
2023-05-14T08:05:51.214Z,95414.44
2023-05-14T08:08:24.374Z,95414.00
2023-05-14T08:11:11.268Z,95409.16
2023-05-14T08:13:44.394Z,95413.25
2023-05-14T08:16:32.252Z,95406.50
2023-05-14T08:19:12.257Z,95406.91
2023-05-14T08:22:06.247Z,95407.56
2023-05-14T08:24:53.217Z,95400.28
2023-05-14T08:27:26.407Z,95410.31
2023-05-14T08:30:14.251Z,95398.06
2023-05-14T08:32:47.447Z,95397.41
2023-05-14T08:35:41.289Z,95391.38
2023-05-14T08:38:35.227Z,95397.25
2023-05-14T08:41:23.272Z,95395.69
2023-05-14T08:44:39.257Z,95396.34
2023-05-14T08:47:28.324Z,95385.03
2023-05-14T08:50:04.685Z,95391.75
2023-05-14T08:52:52.277Z,95380.75
2023-05-14T08:55:26.389Z,95383.63
2023-05-14T08:58:13.279Z,95378.44
2023-05-14T09:00:53.273Z,95382.13
2023-05-14T09:03:48.304Z,95377.47
2023-05-14T09:06:42.271Z,95374.56
2023-05-14T09:09:30.279Z,95368.91
2023-05-14T09:12:10.268Z,95367.06
2023-05-14T09:15:04.296Z,95367.44
2023-05-14T09:17:54.294Z,95367.75
2023-05-14T09:20:28.530Z,95369.53
2023-05-14T09:23:15.352Z,95360.88
2023-05-14T09:25:49.477Z,95353.78
2023-05-14T09:28:37.313Z,95354.63
2023-05-14T09:31:10.421Z,95357.03
2023-05-14T09:33:58.278Z,95356.72
2023-05-14T09:36:39.259Z,95349.56
2023-05-14T09:39:33.372Z,95351.00
2023-05-14T09:42:20.281Z,95340.50
2023-05-14T09:44:53.415Z,95348.31
2023-05-14T09:47:40.393Z,95341.59
2023-05-14T09:50:14.488Z,95340.28
2023-05-14T09:53:02.295Z,95317.47
2023-05-14T09:55:36.610Z,95315.69
2023-05-14T09:58:23.306Z,95314.41
2023-05-14T10:00:58.712Z,95325.22
2023-05-14T10:03:45.313Z,95325.22
2023-05-14T10:06:28.298Z,95315.59
2023-05-14T10:09:19.320Z,95321.09
2023-05-14T10:11:56.475Z,95318.44
2023-05-14T10:14:47.341Z,95314.44
2023-05-14T10:17:20.639Z,95320.75
2023-05-14T10:20:09.345Z,95308.69
2023-05-14T10:22:42.388Z,95290.72
2023-05-14T10:25:30.318Z,95289.97
2023-05-14T10:28:04.483Z,95294.44
2023-05-14T10:30:52.415Z,95290.78
2023-05-14T10:33:25.455Z,95294.66
2023-05-14T10:36:14.320Z,95292.66
2023-05-14T10:38:47.481Z,95283.06
2023-05-14T10:41:34.315Z,95270.09
2023-05-14T10:44:15.543Z,95263.22
2023-05-14T10:47:03.405Z,95256.13
2023-05-14T10:49:43.463Z,95258.59
2023-05-14T10:52:31.381Z,95257.38
2023-05-14T10:55:10.276Z,95255.72
2023-05-14T10:57:59.351Z,95255.81
2023-05-14T11:00:40.327Z,95255.06
2023-05-14T11:03:34.426Z,95261.09
2023-05-14T11:06:10.597Z,95261.56
2023-05-14T11:08:57.360Z,95253.31
2023-05-14T11:11:30.524Z,95241.63
2023-05-14T11:14:17.332Z,95249.50
2023-05-14T11:16:50.551Z,95267.91
2023-05-14T11:19:37.401Z,95255.72
2023-05-14T11:22:13.703Z,95253.56
2023-05-14T11:25:00.393Z,95261.38
2023-05-14T11:27:33.502Z,95260.66
2023-05-14T11:30:25.601Z,95261.50
2023-05-14T11:33:01.785Z,95262.34
2023-05-14T11:35:52.385Z,95258.31
2023-05-14T11:38:27.556Z,95252.94
2023-05-14T11:41:14.390Z,95240.63
2023-05-14T11:43:48.540Z,95247.44
2023-05-14T11:46:37.424Z,95226.34
2023-05-14T11:49:11.514Z,95216.63
2023-05-14T11:52:09.420Z,95218.78
2023-05-14T11:54:42.573Z,95219.50
2023-05-14T11:57:29.429Z,95217.38
2023-05-14T12:00:04.752Z,95215.44
2023-05-14T12:02:51.436Z,95197.94
2023-05-14T12:05:25.518Z,95198.59
2023-05-14T12:08:37.483Z,95194.25
2023-05-14T12:11:10.584Z,95181.56
2023-05-14T12:13:57.416Z,95172.94
2023-05-14T12:16:30.823Z,95172.06
2023-05-14T12:19:20.411Z,95170.56
2023-05-14T12:21:55.673Z,95160.31
2023-05-14T12:24:42.387Z,95150.97
2023-05-14T12:27:17.508Z,95163.53
2023-05-14T12:32:46.626Z,95152.75
2023-05-14T12:35:33.416Z,95143.09
2023-05-14T12:38:06.620Z,95151.75
2023-05-14T12:40:53.488Z,95148.41
2023-05-14T12:43:38.413Z,95150.13
2023-05-14T12:46:28.160Z,95145.97
2023-05-14T12:49:01.548Z,95156.84
2023-05-14T12:51:48.390Z,95132.91
2023-05-14T12:54:24.232Z,95136.94
2023-05-14T12:57:11.416Z,95132.63
2023-05-14T12:59:51.479Z,95137.06
2023-05-14T13:02:45.500Z,95128.03
2023-05-14T13:05:32.418Z,95136.19
2023-05-14T13:08:14.505Z,95125.84
2023-05-14T13:11:02.424Z,95129.28
2023-05-14T13:13:44.450Z,95131.13
2023-05-14T13:16:34.502Z,95129.41
2023-05-14T13:19:07.741Z,95108.31
2023-05-14T13:21:54.492Z,95107.44
2023-05-14T13:24:35.579Z,95097.75
2023-05-14T13:27:22.512Z,95103.53
2023-05-14T13:30:02.482Z,95101.22
2023-05-14T13:32:56.530Z,95091.88
2023-05-14T13:35:50.487Z,95090.00
2023-05-14T13:38:44.488Z,95089.00
2023-05-14T13:41:32.579Z,95091.72
2023-05-14T13:44:05.877Z,95087.75
2023-05-14T13:46:53.682Z,95090.28
2023-05-14T13:49:27.601Z,95086.34
2023-05-14T13:52:14.491Z,95086.34
2023-05-14T13:54:54.531Z,95080.22
2023-05-14T13:57:49.471Z,95080.22
2023-05-14T14:00:36.553Z,95077.81
2023-05-14T14:03:09.670Z,95071.44
2023-05-14T14:05:56.532Z,95074.81
2023-05-14T14:08:37.488Z,95058.78
2023-05-14T14:11:31.696Z,95055.13
2023-05-14T14:14:18.678Z,95050.06
2023-05-14T14:16:52.798Z,95060.56
2023-05-14T14:19:39.595Z,95056.38
2023-05-14T14:22:27.126Z,95060.88
2023-05-14T14:25:22.820Z,95070.94
2023-05-14T14:28:16.508Z,95056.94
2023-05-14T14:31:03.534Z,95045.03
2023-05-14T14:33:43.523Z,95044.44
2023-05-14T14:36:38.493Z,95040.81
2023-05-14T14:39:25.528Z,95035.66
2023-05-14T14:41:58.594Z,95029.91
2023-05-14T14:44:45.532Z,95027.31
2023-05-14T14:47:18.626Z,95031.75
2023-05-14T14:50:05.590Z,95028.66
2023-05-14T14:52:46.166Z,95021.63
2023-05-14T14:55:39.547Z,95014.84
2023-05-14T14:58:28.541Z,95009.66
2023-05-14T15:01:03.739Z,95017.44
2023-05-14T15:03:52.619Z,95009.06
2023-05-14T15:06:32.545Z,95005.72
2023-05-14T15:09:26.495Z,95008.19
2023-05-14T15:12:15.559Z,94994.59
2023-05-14T15:14:48.776Z,94987.16
2023-05-14T15:17:35.601Z,94980.38
2023-05-14T15:20:09.084Z,94974.34
2023-05-14T15:22:58.617Z,94978.63
2023-05-14T15:25:40.551Z,94970.16
2023-05-14T15:28:36.544Z,94974.50
2023-05-14T15:31:30.577Z,94972.91
2023-05-14T15:34:18.539Z,94976.25
2023-05-14T15:36:58.541Z,94967.66
2023-05-14T15:39:45.550Z,94962.53
2023-05-14T15:42:19.694Z,94966.97
2023-05-14T15:45:06.559Z,94963.53
2023-05-14T15:47:48.567Z,94970.63
2023-05-14T15:50:42.545Z,94968.19
2023-05-14T15:53:36.538Z,94968.38
2023-05-14T15:56:23.528Z,94962.41
2023-05-14T15:58:56.599Z,94968.50
2023-05-14T16:01:43.576Z,94961.78
2023-05-14T16:04:23.572Z,94963.00
2023-05-14T16:07:19.547Z,94954.66
2023-05-14T16:10:13.578Z,94949.69
2023-05-14T16:13:07.552Z,94942.97
2023-05-14T16:15:54.586Z,94944.75
2023-05-14T16:18:27.897Z,94930.97
2023-05-14T16:21:14.540Z,94936.34
2023-05-14T16:23:47.684Z,94933.97
2023-05-14T16:26:34.538Z,94932.44
2023-05-14T16:29:08.457Z,94932.75
2023-05-14T16:31:56.557Z,94924.66
2023-05-14T16:34:29.680Z,94927.47
2023-05-14T16:37:16.616Z,94922.38
2023-05-14T16:39:56.592Z,94919.22
2023-05-14T16:42:51.695Z,94918.78
2023-05-14T16:45:40.618Z,94920.75
2023-05-14T16:48:14.771Z,94910.69
2023-05-14T16:51:02.674Z,94918.50
2023-05-14T16:53:42.591Z,94915.31
2023-05-14T16:56:36.642Z,94904.34
2023-05-14T16:59:30.583Z,94908.06
2023-05-14T17:02:17.549Z,94906.47
2023-05-14T17:04:50.813Z,94895.50
2023-05-14T17:07:40.579Z,94892.28
2023-05-14T17:10:16.928Z,94890.75
2023-05-14T17:13:03.556Z,94883.22
2023-05-14T17:15:36.894Z,94880.69
2023-05-14T17:18:23.542Z,94878.28
2023-05-14T17:20:56.764Z,94873.41
2023-05-14T17:23:43.555Z,94871.94
2023-05-14T17:26:16.718Z,94884.25
2023-05-14T17:29:03.561Z,94882.63
2023-05-14T17:31:43.548Z,94888.84
2023-05-14T17:34:30.577Z,94891.56
2023-05-14T17:37:10.615Z,94894.44
2023-05-14T17:40:04.585Z,94895.69
2023-05-14T17:42:58.577Z,94902.03
2023-05-14T17:45:54.542Z,94904.16
2023-05-14T17:48:48.628Z,94906.25
2023-05-14T17:51:42.603Z,94898.81
2023-05-14T17:54:29.580Z,94900.81
2023-05-14T17:57:03.682Z,94891.81
2023-05-14T17:59:50.589Z,94899.63
2023-05-14T18:02:23.716Z,94897.94
2023-05-14T18:05:10.600Z,94894.78
2023-05-14T18:07:44.429Z,94899.22
2023-05-14T18:10:31.575Z,94900.31
2023-05-14T18:13:12.602Z,94896.31
2023-05-14T18:16:07.692Z,94898.31
2023-05-14T18:18:55.646Z,94898.50
2023-05-14T18:21:36.600Z,94896.97
2023-05-14T18:24:30.605Z,94902.53
2023-05-14T18:27:17.627Z,94901.22
2023-05-14T18:29:58.610Z,94909.97
2023-05-14T18:32:45.681Z,94916.28
2023-05-14T18:35:27.790Z,94913.19
2023-05-14T18:38:24.654Z,94915.31
2023-05-14T18:41:11.601Z,94917.50
2023-05-14T18:43:44.754Z,94927.38
2023-05-14T18:46:32.661Z,94929.59
2023-05-14T18:49:13.627Z,94920.53
2023-05-14T18:52:08.616Z,94919.31
2023-05-14T18:55:02.610Z,94911.09
2023-05-14T18:57:50.664Z,94920.00
2023-05-14T19:00:23.749Z,94922.91
2023-05-14T19:03:10.780Z,94919.75
2023-05-14T19:05:57.617Z,94906.38
2023-05-14T19:08:51.621Z,94911.78
2023-05-14T19:11:38.640Z,94897.53
2023-05-14T19:14:11.807Z,94880.75
2023-05-14T19:16:58.650Z,94881.84
2023-05-14T19:19:31.799Z,94885.47
2023-05-14T19:22:19.640Z,94881.47
2023-05-14T19:24:59.622Z,94877.38
2023-05-14T19:27:57.622Z,94872.44
2023-05-14T19:30:44.636Z,94867.44
2023-05-14T19:33:24.636Z,94859.03
2023-05-14T19:36:18.635Z,94858.34
2023-05-14T19:39:12.645Z,94854.19
2023-05-14T19:42:07.630Z,94850.03
2023-05-14T19:45:02.629Z,94845.16
2023-05-14T19:47:56.693Z,94850.44
2023-05-14T19:50:51.658Z,94846.25
2023-05-14T19:53:38.640Z,94838.56
2023-05-14T19:56:12.425Z,94843.75
2023-05-14T19:58:59.656Z,94843.06
2023-05-14T20:01:34.428Z,94834.47
2023-05-14T20:04:22.667Z,94839.66
2023-05-14T20:07:05.647Z,94835.50
2023-05-14T20:09:53.666Z,94828.59
2023-05-14T20:12:27.815Z,94829.53
2023-05-14T20:15:15.738Z,94836.41
2023-05-14T20:17:50.068Z,94826.06
2023-05-14T20:20:36.659Z,94832.81
2023-05-14T20:23:16.672Z,94826.13
2023-05-14T20:26:10.691Z,94815.94
2023-05-14T20:28:57.841Z,94819.41
2023-05-14T20:31:32.822Z,94807.44
2023-05-14T20:34:19.637Z,94808.34
2023-05-14T20:36:54.862Z,94802.28
2023-05-14T20:39:41.665Z,94799.84
2023-05-14T20:42:14.862Z,94795.53
2023-05-14T20:45:01.702Z,94774.19
2023-05-14T20:47:34.795Z,94774.31
2023-05-14T20:50:21.662Z,94757.28
2023-05-14T20:52:54.786Z,94756.50
2023-05-14T20:55:41.691Z,94756.50
2023-05-14T20:58:14.782Z,94752.31
2023-05-14T21:01:01.661Z,94750.69
2023-05-14T21:03:35.606Z,94752.47
2023-05-14T21:06:22.666Z,94738.00
2023-05-14T21:09:02.743Z,94730.34
2023-05-14T21:11:49.680Z,94724.41
2023-05-14T21:14:29.678Z,94707.22
2023-05-14T21:17:23.717Z,94702.09
2023-05-14T21:20:19.666Z,94697.06
2023-05-14T21:23:06.694Z,94694.53
2023-05-14T21:25:47.670Z,94698.16
2023-05-14T21:28:41.687Z,94703.28
2023-05-14T21:31:28.725Z,94703.38
2023-05-14T21:34:08.715Z,94713.63
2023-05-14T21:37:02.691Z,94717.06
2023-05-14T21:39:49.681Z,94714.50
2023-05-14T21:42:22.812Z,94714.50
2023-05-14T21:45:09.696Z,94700.81
2023-05-14T21:47:43.923Z,94699.19
2023-05-14T21:50:30.715Z,94694.84
2023-05-14T21:53:10.696Z,94693.09
2023-05-14T21:55:57.700Z,94691.34
2023-05-14T21:58:30.809Z,94693.97
2023-05-14T22:01:17.735Z,94694.00
2023-05-14T22:03:50.823Z,94697.41
2023-05-14T22:06:38.757Z,94694.84
2023-05-14T22:09:18.739Z,94700.88
2023-05-14T22:12:05.713Z,94689.88
2023-05-14T22:14:38.855Z,94683.09
2023-05-14T22:17:25.767Z,94676.22
2023-05-14T22:19:58.851Z,94675.34
2023-05-14T22:22:45.708Z,94675.50
2023-05-14T22:25:26.070Z,94664.34
2023-05-14T22:28:19.709Z,94667.94
2023-05-14T22:31:13.812Z,94659.31
2023-05-14T22:34:07.755Z,94666.09
2023-05-14T22:37:01.700Z,94669.50
2023-05-14T22:39:55.738Z,94669.50
2023-05-14T22:42:42.706Z,94657.53
2023-05-14T22:45:16.798Z,94650.66
2023-05-14T22:48:03.786Z,94653.16
2023-05-14T22:50:43.714Z,94648.81
2023-05-14T22:53:37.768Z,94651.34
2023-05-14T22:56:25.732Z,94647.13
2023-05-14T22:59:00.386Z,94649.63
2023-05-14T23:01:46.798Z,94650.50
2023-05-14T23:04:19.847Z,94647.06
2023-05-14T23:07:06.728Z,94651.34
2023-05-14T23:09:39.857Z,94641.13
2023-05-14T23:12:26.812Z,94644.59
2023-05-14T23:15:09.731Z,94636.94
2023-05-14T23:18:03.824Z,94634.38
2023-05-14T23:20:50.748Z,94637.06
2023-05-14T23:23:23.830Z,94636.38
2023-05-14T23:26:10.772Z,94636.41
2023-05-14T23:28:50.732Z,94641.50
2023-05-14T23:31:37.768Z,94635.50
2023-05-14T23:34:17.754Z,94639.81
2023-05-14T23:37:11.727Z,94637.22
2023-05-14T23:39:58.739Z,94624.41
2023-05-14T23:42:32.133Z,94617.63
2023-05-14T23:45:19.756Z,94612.53
2023-05-14T23:47:52.877Z,94611.75
2023-05-14T23:50:39.774Z,94611.75
2023-05-14T23:53:12.855Z,94607.56
2023-05-14T23:55:59.760Z,94603.31
2023-05-14T23:58:33.750Z,94604.13
